createdAt,value
2018-12-06T00:02:16.559Z,100848.55
2018-12-06T00:04:49.179Z,100847.26
2018-12-06T00:07:21.845Z,100838.35
2018-12-06T00:09:54.391Z,100831.16
2018-12-06T00:12:27.045Z,100827.39
2018-12-06T00:15:11.465Z,100825.27
2018-12-06T00:17:44.103Z,100824.42
2018-12-06T00:20:16.684Z,100817.66
2018-12-06T00:22:49.246Z,100810.00
2018-12-06T00:25:21.954Z,100816.80
2018-12-06T00:27:54.558Z,100803.25
2018-12-06T00:30:37.108Z,100799.05
2018-12-06T00:33:09.704Z,100796.94
2018-12-06T00:35:42.239Z,100795.66
2018-12-06T00:38:14.805Z,100792.69
2018-12-06T00:40:47.344Z,100784.66
2018-12-06T00:43:20.010Z,100783.38
2018-12-06T00:45:52.547Z,100774.09
2018-12-06T00:48:25.208Z,100776.20
2018-12-06T00:50:57.741Z,100771.96
2018-12-06T00:53:30.453Z,100776.22
2018-12-06T00:56:02.983Z,100776.20
2018-12-06T00:58:35.551Z,100764.77
2018-12-06T01:01:08.110Z,100760.11
2018-12-06T01:03:40.692Z,100760.98
2018-12-06T01:06:13.232Z,100759.30
2018-12-06T01:08:45.890Z,100752.52
2018-12-06T01:11:18.493Z,100752.47
2018-12-06T01:13:51.052Z,100756.31
2018-12-06T01:16:23.602Z,100748.67
2018-12-06T01:18:56.235Z,100754.59
2018-12-06T01:21:28.758Z,100752.47
2018-12-06T01:24:01.465Z,100746.13
2018-12-06T01:26:34.127Z,100743.16
2018-12-06T01:29:06.720Z,100739.34
2018-12-06T01:31:39.263Z,100741.45
2018-12-06T01:34:12.030Z,100740.62
2018-12-06T01:36:44.590Z,100734.23
2018-12-06T01:39:17.425Z,100736.36
2018-12-06T01:41:49.951Z,100728.33
2018-12-06T01:44:22.508Z,100728.29
2018-12-06T01:46:55.179Z,100726.59
2018-12-06T01:49:27.731Z,100720.23
2018-12-06T01:52:00.373Z,100724.45
2018-12-06T01:54:32.921Z,100712.63
2018-12-06T01:57:07.031Z,100706.25
2018-12-06T01:59:40.188Z,100702.88
2018-12-06T02:02:12.805Z,100696.14
2018-12-06T02:04:45.426Z,100702.88
2018-12-06T02:07:17.960Z,100694.42
2018-12-06T02:09:50.601Z,100676.23
2018-12-06T02:12:23.129Z,100680.46
2018-12-06T02:14:55.784Z,100672.84
2018-12-06T02:17:28.416Z,100665.66
2018-12-06T02:20:00.973Z,100664.39
2018-12-06T02:22:33.829Z,100663.55
2018-12-06T02:25:06.420Z,100654.23
2018-12-06T02:27:39.004Z,100644.91
2018-12-06T02:30:11.799Z,100639.82
2018-12-06T02:32:44.362Z,100638.11
2018-12-06T02:35:16.977Z,100638.48
2018-12-06T02:37:49.958Z,100639.77
2018-12-06T02:40:22.519Z,100647.83
2018-12-06T02:42:55.085Z,100641.02
2018-12-06T02:45:28.001Z,100633.36
2018-12-06T02:48:00.545Z,100642.27
2018-12-06T02:50:33.218Z,100626.59
2018-12-06T02:53:05.835Z,100624.88
2018-12-06T02:55:38.555Z,100627.03
2018-12-06T02:58:11.121Z,100629.54
2018-12-06T03:00:43.694Z,100635.02
2018-12-06T03:03:16.280Z,100631.16
2018-12-06T03:05:48.885Z,100621.41
2018-12-06T03:08:21.446Z,100616.81
2018-12-06T03:10:53.999Z,100609.59
2018-12-06T03:13:26.588Z,100600.23
2018-12-06T03:15:59.165Z,100595.59
2018-12-06T03:18:31.718Z,100587.09
2018-12-06T03:21:04.392Z,100576.08
2018-12-06T03:23:36.938Z,100579.87
2018-12-06T03:26:09.499Z,100577.73
2018-12-06T03:28:42.048Z,100565.91
2018-12-06T03:31:14.610Z,100565.95
2018-12-06T03:33:47.167Z,100564.66
2018-12-06T03:36:19.761Z,100552.05
2018-12-06T03:38:52.298Z,100560.92
2018-12-06T03:41:24.971Z,100554.60
2018-12-06T03:43:57.504Z,100551.18
2018-12-06T03:46:30.070Z,100539.36
2018-12-06T03:49:02.629Z,100538.11
2018-12-06T03:51:35.209Z,100533.82
2018-12-06T03:54:07.786Z,100528.81
2018-12-06T03:56:40.371Z,100523.75
2018-12-06T03:59:12.925Z,100530.48
2018-12-06T04:01:45.519Z,100538.09
2018-12-06T04:04:18.206Z,100542.72
2018-12-06T04:06:50.769Z,100560.47
2018-12-06T04:09:23.309Z,100561.33
2018-12-06T04:11:55.891Z,100567.66
2018-12-06T04:14:28.423Z,100577.80
2018-12-06T04:17:01.008Z,100584.52
2018-12-06T04:19:33.541Z,100587.00
2018-12-06T04:22:06.210Z,100586.95
2018-12-06T04:24:38.719Z,100587.37
2018-12-06T04:27:11.379Z,100586.08
2018-12-06T04:29:43.923Z,100578.56
2018-12-06T04:32:17.563Z,100576.83
2018-12-06T04:34:50.240Z,100582.73
2018-12-06T04:37:22.804Z,100592.42
2018-12-06T04:39:55.337Z,100592.94
2018-12-06T04:42:28.002Z,100597.97
2018-12-06T04:45:00.528Z,100587.36
2018-12-06T04:47:33.289Z,100585.18
2018-12-06T04:50:05.846Z,100581.48
2018-12-06T04:52:38.435Z,100570.01
2018-12-06T04:55:10.981Z,100563.98
2018-12-06T04:57:43.759Z,100561.80
2018-12-06T05:00:16.315Z,100565.20
2018-12-06T05:02:48.867Z,100567.30
2018-12-06T05:05:21.399Z,100565.56
2018-12-06T05:07:54.052Z,100566.45
2018-12-06T05:10:26.681Z,100577.44
2018-12-06T05:12:59.258Z,100562.18
2018-12-06T05:15:31.798Z,100575.25
2018-12-06T05:18:04.381Z,100570.14
2018-12-06T05:20:36.933Z,100576.88
2018-12-06T05:23:09.487Z,100567.52
2018-12-06T05:25:42.033Z,100567.48
2018-12-06T05:28:14.685Z,100564.52
2018-12-06T05:30:47.217Z,100557.28
2018-12-06T05:33:19.781Z,100552.31
2018-12-06T05:35:52.321Z,100561.56
2018-12-06T05:38:24.898Z,100558.59
2018-12-06T05:40:57.511Z,100547.58
2018-12-06T05:43:30.085Z,100550.58
2018-12-06T05:46:02.623Z,100542.48
2018-12-06T05:48:35.199Z,100540.75
2018-12-06T05:51:07.822Z,100533.50
2018-12-06T05:53:40.406Z,100537.75
2018-12-06T05:56:12.948Z,100538.98
2018-12-06T05:58:45.520Z,100533.47
2018-12-06T06:01:18.050Z,100536.06
2018-12-06T06:03:50.619Z,100531.81
2018-12-06T06:06:23.325Z,100519.50
2018-12-06T06:08:55.901Z,100514.88
2018-12-06T06:11:28.780Z,100506.07
2018-12-06T06:14:02.305Z,100508.49
2018-12-06T06:16:34.970Z,100512.80
2018-12-06T06:19:08.802Z,100524.56
2018-12-06T06:21:41.353Z,100525.86
2018-12-06T06:24:14.025Z,100533.13
2018-12-06T06:26:46.774Z,100529.70
2018-12-06T06:29:19.740Z,100532.37
2018-12-06T06:31:52.315Z,100515.34
2018-12-06T06:34:24.941Z,100508.49
2018-12-06T06:36:57.602Z,100509.33
2018-12-06T06:39:30.630Z,100514.41
2018-12-06T06:42:03.332Z,100519.53
2018-12-06T06:44:36.462Z,100522.88
2018-12-06T06:47:09.044Z,100515.25
2018-12-06T06:49:41.681Z,100519.50
2018-12-06T06:52:15.139Z,100513.61
2018-12-06T06:54:47.813Z,100495.45
2018-12-06T06:57:20.373Z,100490.38
2018-12-06T06:59:53.011Z,100494.09
2018-12-06T07:02:25.688Z,100490.28
2018-12-06T07:04:58.329Z,100504.67
2018-12-06T07:07:30.963Z,100510.60
2018-12-06T07:10:05.536Z,100514.91
2018-12-06T07:12:38.074Z,100513.95
2018-12-06T07:15:10.928Z,100510.94
2018-12-06T07:17:43.522Z,100517.33
2018-12-06T07:20:16.786Z,100530.36
2018-12-06T07:22:49.834Z,100539.70
2018-12-06T07:25:22.601Z,100551.03
2018-12-06T07:27:55.415Z,100551.87
2018-12-06T07:30:28.043Z,100558.26
2018-12-06T07:33:00.588Z,100558.63
2018-12-06T07:35:33.205Z,100555.55
2018-12-06T07:38:05.802Z,100562.72
2018-12-06T07:40:38.472Z,100575.08
2018-12-06T07:43:11.009Z,100583.52
2018-12-06T07:45:43.685Z,100578.33
2018-12-06T07:48:16.206Z,100577.93
2018-12-06T07:50:48.843Z,100584.66
2018-12-06T07:53:21.398Z,100574.78
2018-12-06T07:55:54.075Z,100586.64
2018-12-06T07:58:26.642Z,100589.92
2018-12-06T08:00:59.362Z,100589.52
2018-12-06T08:03:31.913Z,100594.55
2018-12-06T08:06:04.516Z,100600.03
2018-12-06T08:08:37.071Z,100600.80
2018-12-06T08:11:09.735Z,100603.71
2018-12-06T08:13:43.296Z,100604.91
2018-12-06T08:16:15.865Z,100615.10
2018-12-06T08:18:48.417Z,100616.34
2018-12-06T08:21:20.997Z,100611.61
2018-12-06T08:23:53.538Z,100601.45
2018-12-06T08:26:26.124Z,100601.97
2018-12-06T08:28:58.672Z,100600.94
2018-12-06T08:31:31.250Z,100601.81
2018-12-06T08:34:06.384Z,100598.78
2018-12-06T08:36:38.453Z,100587.28
2018-12-06T08:39:10.997Z,100592.38
2018-12-06T08:41:43.571Z,100597.83
2018-12-06T08:44:21.334Z,100603.37
2018-12-06T08:46:50.733Z,100604.16
2018-12-06T08:49:23.282Z,100605.76
2018-12-06T08:51:55.862Z,100599.47
2018-12-06T08:54:28.422Z,100609.66
2018-12-06T08:57:01.035Z,100614.67
2018-12-06T08:59:33.567Z,100613.76
2018-12-06T09:02:06.142Z,100607.78
2018-12-06T09:04:38.715Z,100596.36
2018-12-06T09:07:11.308Z,100601.84
2018-12-06T09:09:44.062Z,100596.75
2018-12-06T09:12:16.642Z,100582.77
2018-12-06T09:14:49.181Z,100578.91
2018-12-06T09:17:21.753Z,100581.45
2018-12-06T09:19:54.436Z,100580.09
2018-12-06T09:22:27.120Z,100572.32
2018-12-06T09:24:59.672Z,100565.86
2018-12-06T09:27:32.287Z,100567.53
2018-12-06T09:30:06.015Z,100566.20
2018-12-06T09:32:38.702Z,100564.75
2018-12-06T09:35:11.348Z,100556.53
2018-12-06T09:37:43.951Z,100554.59
2018-12-06T09:40:16.637Z,100549.00
2018-12-06T09:42:49.424Z,100534.81
2018-12-06T09:45:22.011Z,100531.77
2018-12-06T09:47:54.649Z,100532.22
2018-12-06T09:50:27.198Z,100529.52
2018-12-06T09:52:59.788Z,100518.37
2018-12-06T09:55:34.010Z,100507.08
2018-12-06T09:58:07.633Z,100504.44
2018-12-06T10:00:41.125Z,100500.39
2018-12-06T10:03:14.870Z,100494.23
2018-12-06T10:05:47.775Z,100494.63
2018-12-06T10:08:21.419Z,100486.30
2018-12-06T10:10:55.013Z,100486.02
2018-12-06T10:13:28.250Z,100497.01
2018-12-06T10:16:02.279Z,100501.70
2018-12-06T10:18:36.555Z,100504.30
2018-12-06T10:21:09.751Z,100506.85
2018-12-06T10:23:43.918Z,100511.36
2018-12-06T10:26:16.903Z,100512.42
2018-12-06T10:33:41.361Z,100528.44
2018-12-06T10:36:14.529Z,100525.94
2018-12-06T10:38:47.523Z,100532.70
2018-12-06T10:41:20.752Z,100542.75
2018-12-06T10:43:53.928Z,100544.41
2018-12-06T10:46:26.849Z,100549.14
2018-12-06T10:48:59.801Z,100545.23
2018-12-06T10:51:40.572Z,100538.39
2018-12-06T10:54:13.809Z,100540.05
2018-12-06T10:56:47.227Z,100538.26
2018-12-06T10:59:20.350Z,100514.05
2018-12-06T11:02:00.243Z,100504.91
2018-12-06T11:04:35.653Z,100504.47
2018-12-06T11:07:08.784Z,100514.70
2018-12-06T11:09:42.589Z,100512.78
2018-12-06T11:12:15.533Z,100503.75
2018-12-06T11:14:48.567Z,100507.09
2018-12-06T11:17:22.353Z,100507.91
2018-12-06T11:19:55.546Z,100503.26
2018-12-06T11:22:28.689Z,100508.44
2018-12-06T11:25:01.722Z,100514.44
2018-12-06T11:27:34.685Z,100512.27
2018-12-06T11:30:07.909Z,100510.58
2018-12-06T11:32:40.998Z,100504.34
2018-12-06T11:35:14.660Z,100497.59
2018-12-06T11:37:47.922Z,100496.93
2018-12-06T11:40:20.986Z,100489.99
2018-12-06T11:42:53.955Z,100486.48
2018-12-06T11:45:27.920Z,100484.64
2018-12-06T11:48:01.412Z,100482.47
2018-12-06T11:50:34.466Z,100475.19
2018-12-06T11:53:07.937Z,100475.58
2018-12-06T11:55:41.008Z,100468.92
2018-12-06T11:58:14.131Z,100460.39
2018-12-06T12:00:46.972Z,100466.38
2018-12-06T12:03:19.701Z,100465.19
2018-12-06T12:05:58.595Z,100483.08
2018-12-06T12:08:28.195Z,100481.56
2018-12-06T12:11:01.322Z,100488.19
2018-12-06T12:13:34.483Z,100488.95
2018-12-06T12:16:07.811Z,100496.98
2018-12-06T12:18:41.229Z,100505.53
2018-12-06T12:21:14.373Z,100507.05
2018-12-06T12:23:48.557Z,100512.73
2018-12-06T12:26:22.199Z,100505.34
2018-12-06T12:28:55.535Z,100499.55
2018-12-06T12:31:28.838Z,100499.03
2018-12-06T12:34:02.073Z,100499.70
2018-12-06T12:36:35.184Z,100514.44
2018-12-06T12:39:08.700Z,100516.50
2018-12-06T12:41:41.685Z,100501.27
2018-12-06T12:44:15.649Z,100499.55
2018-12-06T12:46:48.796Z,100490.30
2018-12-06T12:49:22.144Z,100494.80
2018-12-06T12:51:55.536Z,100488.48
2018-12-06T12:54:28.689Z,100487.64
2018-12-06T12:57:01.850Z,100480.66
2018-12-06T12:59:35.027Z,100479.88
2018-12-06T13:02:08.504Z,100489.91
2018-12-06T13:04:41.625Z,100492.47
2018-12-06T13:07:14.693Z,100492.30
2018-12-06T13:09:47.710Z,100493.08
2018-12-06T13:12:20.969Z,100487.41
2018-12-06T13:14:54.008Z,100487.35
2018-12-06T13:17:27.179Z,100488.85
2018-12-06T13:20:00.477Z,100495.56
2018-12-06T13:22:33.756Z,100502.05
2018-12-06T13:25:06.892Z,100510.70
2018-12-06T13:27:40.840Z,100521.11
2018-12-06T13:30:14.007Z,100516.88
2018-12-06T13:32:47.209Z,100508.44
2018-12-06T13:35:20.409Z,100510.34
2018-12-06T13:37:53.784Z,100513.88
2018-12-06T13:40:27.000Z,100505.88
2018-12-06T13:43:00.120Z,100501.57
2018-12-06T13:45:33.193Z,100508.94
2018-12-06T13:48:06.341Z,100494.56
2018-12-06T13:50:39.443Z,100488.63
2018-12-06T13:53:12.499Z,100488.05
2018-12-06T13:55:45.584Z,100486.29
2018-12-06T13:58:18.699Z,100485.84
2018-12-06T14:00:52.023Z,100481.39
2018-12-06T14:03:25.478Z,100486.20
2018-12-06T14:05:58.682Z,100484.78
2018-12-06T14:08:31.815Z,100492.97
2018-12-06T14:11:05.059Z,100481.31
2018-12-06T14:13:38.329Z,100470.98
2018-12-06T14:16:11.653Z,100472.95
2018-12-06T14:18:44.889Z,100483.81
2018-12-06T14:21:17.517Z,100481.52
2018-12-06T14:23:50.183Z,100478.16
2018-12-06T14:26:22.756Z,100472.02
2018-12-06T14:28:55.330Z,100467.17
2018-12-06T14:31:27.875Z,100451.17
2018-12-06T14:34:00.582Z,100451.67
2018-12-06T14:36:33.167Z,100458.83
2018-12-06T14:39:07.512Z,100462.97
2018-12-06T14:41:40.234Z,100451.73
2018-12-06T14:44:12.801Z,100468.48
2018-12-06T14:46:45.595Z,100478.58
2018-12-06T14:49:18.169Z,100483.08
2018-12-06T14:51:50.712Z,100486.36
2018-12-06T14:54:23.371Z,100487.64
2018-12-06T14:56:55.957Z,100492.77
2018-12-06T14:59:28.662Z,100493.20
2018-12-06T15:02:01.385Z,100495.71
2018-12-06T15:04:34.118Z,100484.98
2018-12-06T15:07:06.692Z,100471.28
2018-12-06T15:09:39.572Z,100467.44
2018-12-06T15:12:12.205Z,100464.88
2018-12-06T15:14:44.803Z,100476.77
2018-12-06T15:17:17.484Z,100471.73
2018-12-06T15:19:50.394Z,100475.78
2018-12-06T15:22:23.071Z,100480.99
2018-12-06T15:24:55.776Z,100478.28
2018-12-06T15:27:28.601Z,100474.58
2018-12-06T15:30:01.142Z,100465.47
2018-12-06T15:32:33.841Z,100467.25
2018-12-06T15:35:06.468Z,100469.55
2018-12-06T15:37:39.066Z,100479.62
2018-12-06T15:40:11.755Z,100484.59
2018-12-06T15:42:44.398Z,100491.89
2018-12-06T15:45:16.990Z,100483.70
2018-12-06T15:47:49.693Z,100477.81
2018-12-06T15:50:22.285Z,100492.05
2018-12-06T15:52:54.858Z,100488.05
2018-12-06T15:55:27.405Z,100496.45
2018-12-06T15:58:00.044Z,100495.94
2018-12-06T16:00:32.594Z,100491.16
2018-12-06T16:03:05.169Z,100498.77
2018-12-06T16:05:37.722Z,100496.97
2018-12-06T16:08:10.712Z,100500.88
2018-12-06T16:10:43.272Z,100495.66
2018-12-06T16:13:16.322Z,100493.83
2018-12-06T16:15:48.916Z,100484.11
2018-12-06T16:18:21.527Z,100491.58
2018-12-06T16:20:54.078Z,100477.92
2018-12-06T16:23:26.899Z,100476.16
2018-12-06T16:25:59.447Z,100470.13
2018-12-06T16:28:32.066Z,100460.86
2018-12-06T16:31:04.634Z,100463.47
2018-12-06T16:33:37.224Z,100456.47
2018-12-06T16:36:09.789Z,100451.14
2018-12-06T16:38:42.363Z,100451.88
2018-12-06T16:41:14.919Z,100458.05
2018-12-06T16:43:47.525Z,100456.17
2018-12-06T16:46:20.075Z,100464.78
2018-12-06T16:48:52.920Z,100465.52
2018-12-06T16:51:25.461Z,100474.43
2018-12-06T16:53:58.092Z,100462.95
2018-12-06T16:56:30.772Z,100466.38
2018-12-06T16:59:03.357Z,100463.61
2018-12-06T17:01:35.966Z,100468.58
2018-12-06T17:04:08.627Z,100466.11
2018-12-06T17:06:41.184Z,100476.28
2018-12-06T17:09:13.787Z,100468.44
2018-12-06T17:11:46.387Z,100476.59
2018-12-06T17:14:19.267Z,100465.03
2018-12-06T17:16:51.827Z,100467.98
2018-12-06T17:19:24.419Z,100471.73
2018-12-06T17:21:57.120Z,100469.93
2018-12-06T17:24:29.726Z,100467.98
2018-12-06T17:27:02.284Z,100469.76
2018-12-06T17:29:34.951Z,100464.80
2018-12-06T17:32:07.506Z,100458.00
2018-12-06T17:34:40.101Z,100459.22
2018-12-06T17:37:12.646Z,100460.91
2018-12-06T17:39:45.305Z,100449.40
2018-12-06T17:42:17.848Z,100452.06
2018-12-06T17:44:50.510Z,100453.87
2018-12-06T17:47:23.065Z,100459.66
2018-12-06T17:49:55.940Z,100460.29
2018-12-06T17:52:28.574Z,100454.08
2018-12-06T17:55:01.247Z,100456.51
2018-12-06T17:57:33.800Z,100463.41
2018-12-06T18:00:09.574Z,100459.52
2018-12-06T18:02:42.125Z,100456.41
2018-12-06T18:05:14.788Z,100450.78
2018-12-06T18:07:47.346Z,100450.09
2018-12-06T18:10:20.350Z,100451.13
2018-12-06T18:12:52.909Z,100454.95
2018-12-06T18:15:25.810Z,100444.23
2018-12-06T18:17:58.367Z,100452.69
2018-12-06T18:20:30.948Z,100441.48
2018-12-06T18:23:03.550Z,100441.00
2018-12-06T18:25:36.260Z,100443.32
2018-12-06T18:28:08.811Z,100443.84
2018-12-06T18:30:41.459Z,100442.03
2018-12-06T18:33:14.039Z,100455.70
2018-12-06T18:35:46.607Z,100448.67
2018-12-06T18:38:19.168Z,100443.84
2018-12-06T18:40:51.759Z,100449.36
2018-12-06T18:43:24.300Z,100438.08
2018-12-06T18:45:56.946Z,100441.06
2018-12-06T18:48:29.490Z,100440.09
2018-12-06T18:51:02.168Z,100452.20
2018-12-06T18:53:35.078Z,100446.05
2018-12-06T18:56:07.743Z,100432.72
2018-12-06T18:58:40.296Z,100434.19
2018-12-06T19:01:12.922Z,100427.15
2018-12-06T19:03:45.472Z,100422.67
2018-12-06T19:06:18.068Z,100415.80
2018-12-06T19:08:50.759Z,100406.54
2018-12-06T19:11:23.351Z,100409.00
2018-12-06T19:13:55.914Z,100404.20
2018-12-06T19:16:28.578Z,100405.65
2018-12-06T19:19:01.124Z,100409.47
2018-12-06T19:21:33.737Z,100415.59
2018-12-06T19:24:06.346Z,100401.86
2018-12-06T19:26:39.028Z,100402.13
2018-12-06T19:29:11.596Z,100405.55
2018-12-06T19:31:44.187Z,100399.36
2018-12-06T19:34:16.749Z,100401.52
2018-12-06T19:36:49.548Z,100408.28
2018-12-06T19:39:22.092Z,100402.91
2018-12-06T19:41:54.668Z,100402.69
2018-12-06T19:44:27.219Z,100391.31
2018-12-06T19:46:59.894Z,100391.52
2018-12-06T19:49:32.469Z,100386.45
2018-12-06T19:52:05.045Z,100393.81
2018-12-06T19:54:37.606Z,100386.11
2018-12-06T19:57:10.213Z,100384.22
2018-12-06T19:59:42.778Z,100381.43
2018-12-06T20:02:15.492Z,100379.77
2018-12-06T20:04:48.085Z,100369.16
2018-12-06T20:07:20.754Z,100368.86
2018-12-06T20:09:53.295Z,100357.82
2018-12-06T20:12:25.905Z,100356.45
2018-12-06T20:14:58.474Z,100354.47
2018-12-06T20:17:31.201Z,100356.36
2018-12-06T20:20:04.433Z,100348.21
2018-12-06T20:22:37.117Z,100340.41
2018-12-06T20:25:09.958Z,100341.81
2018-12-06T20:27:42.633Z,100334.77
2018-12-06T20:30:15.202Z,100344.99
2018-12-06T20:32:47.787Z,100343.30
2018-12-06T20:35:20.368Z,100324.34
2018-12-06T20:37:53.090Z,100326.59
2018-12-06T20:40:25.764Z,100331.18
2018-12-06T20:42:58.436Z,100324.19
2018-12-06T20:45:31.831Z,100321.73
2018-12-06T20:48:04.576Z,100325.22
2018-12-06T20:50:37.138Z,100330.35
2018-12-06T20:53:09.833Z,100329.86
2018-12-06T20:55:42.408Z,100329.63
2018-12-06T20:58:15.446Z,100322.57
2018-12-06T21:00:48.192Z,100313.62
2018-12-06T21:03:20.861Z,100318.03
2018-12-06T21:05:55.209Z,100306.63
2018-12-06T21:08:28.044Z,100315.31
2018-12-06T21:11:01.043Z,100314.75
2018-12-06T21:13:33.744Z,100316.98
2018-12-06T21:16:06.299Z,100329.36
2018-12-06T21:18:38.878Z,100314.41
2018-12-06T21:21:11.429Z,100315.89
2018-12-06T21:23:44.025Z,100303.58
2018-12-06T21:26:16.805Z,100296.06
2018-12-06T21:28:49.637Z,100299.42
2018-12-06T21:31:22.240Z,100289.14
2018-12-06T21:33:54.872Z,100297.20
2018-12-06T21:36:27.449Z,100291.49
2018-12-06T21:39:00.922Z,100278.73
2018-12-06T21:41:33.527Z,100274.87
2018-12-06T21:44:06.098Z,100278.50
2018-12-06T21:46:38.643Z,100281.98
2018-12-06T21:49:11.248Z,100283.56
2018-12-06T21:51:43.850Z,100278.69
2018-12-06T21:54:16.463Z,100272.76
2018-12-06T21:56:49.013Z,100255.91
2018-12-06T21:59:21.670Z,100248.77
2018-12-06T22:02:01.901Z,100242.48
2018-12-06T22:04:34.489Z,100246.70
2018-12-06T22:07:07.362Z,100244.33
2018-12-06T22:09:39.961Z,100246.34
2018-12-06T22:12:12.557Z,100237.34
2018-12-06T22:14:45.331Z,100233.87
2018-12-06T22:17:17.890Z,100245.67
2018-12-06T22:19:50.462Z,100239.33
2018-12-06T22:22:23.066Z,100247.22
2018-12-06T22:24:55.782Z,100234.12
2018-12-06T22:27:28.324Z,100232.71
2018-12-06T22:30:01.059Z,100232.59
2018-12-06T22:32:33.605Z,100225.92
2018-12-06T22:35:06.373Z,100221.29
2018-12-06T22:37:38.916Z,100221.95
2018-12-06T22:40:11.584Z,100218.59
2018-12-06T22:42:44.131Z,100219.09
2018-12-06T22:45:28.570Z,100216.53
2018-12-06T22:48:01.148Z,100218.59
2018-12-06T22:50:33.734Z,100207.23
2018-12-06T22:53:06.302Z,100214.29
2018-12-06T22:55:38.920Z,100219.61
2018-12-06T22:58:11.471Z,100226.92
2018-12-06T23:00:45.016Z,100232.39
2018-12-06T23:03:17.583Z,100231.06
2018-12-06T23:05:50.143Z,100227.20
2018-12-06T23:08:22.735Z,100233.98
2018-12-06T23:11:00.971Z,100223.34
2018-12-06T23:13:33.642Z,100226.86
2018-12-06T23:16:06.210Z,100222.70
2018-12-06T23:18:38.788Z,100216.73
2018-12-06T23:21:11.442Z,100218.20
2018-12-06T23:23:44.026Z,100219.63
2018-12-06T23:26:16.568Z,100227.72
2018-12-06T23:28:49.146Z,100221.67
2018-12-06T23:31:21.699Z,100224.45
2018-12-06T23:33:54.425Z,100221.75
2018-12-06T23:36:26.965Z,100218.66
2018-12-06T23:38:59.529Z,100228.09
2018-12-06T23:41:32.064Z,100220.02
2018-12-06T23:44:05.186Z,100220.27
2018-12-06T23:46:38.022Z,100225.65
2018-12-06T23:49:11.386Z,100219.69
2018-12-06T23:51:44.425Z,100216.28
2018-12-06T23:54:17.383Z,100208.70
2018-12-06T23:56:50.372Z,100204.14
2018-12-06T23:59:23.253Z,100193.98
